KLHM/LHM METAR and TAF weather

Enter ICAO airport designator
Station Type Date Time Source
KLHM METAR 2021/10/22 19:55 UTC NOAA

KLHM 221955Z AUTO 17005G09KT 10SM SCT017 SCT029 BKN039 16/11 A3001 RMK AO1


Station Type Date Time Source
KLHM Decoded METAR 2021/10/22 19:55 UTC NOAA

Station name not available
Oct 22, 2021 - 03:55 PM EDT / 2021.10.22 1955 UTC
Wind: from the S (170 degrees) at 6 MPH (5 KT) gusting to 10 MPH (9 KT):0
Visibility: 10 mile(s):0
Sky conditions: mostly cloudy
Temperature: 60 F (16 C)
Dew Point: 51 F (11 C)
Relative Humidity: 72%
Pressure (altimeter): 30.01 in. Hg (1016 hPa)
ob: KLHM 221955Z AUTO 17005G09KT 10SM SCT017 SCT029 BKN039 16/11 A3001 RMK AO1
cycle: 20

Station Type Date Time Source
KLHM TAF UTC NOAA

Error!

Example: see airport list